Time;durP1;ratioP1;P1;durP2;ratioP2;P2;SDS_P1;SDS_P2;PMS_P1;PMS_P2;Temp;Humidity;BMP_temperature;BMP_pressure;BME280_temperature;BME280_humidity;BME280_pressure;Samples;Min_cycle;Max_cycle;Signal;HPM_P1;HPM_P2
2022/04/16 00:01:26;;;;;;;5.05;3.60;;;18.40;64.20;;;;;;5086773;28;20034;-60
2022/04/16 00:03:51;;;;;;;7.57;3.55;;;18.30;64.10;;;;;;5084534;28;20115;-61
2022/04/16 00:06:17;;;;;;;5.65;3.20;;;18.20;64.10;;;;;;5085326;28;20020;-61
2022/04/16 00:08:42;;;;;;;7.15;3.55;;;18.30;64.00;;;;;;5083407;28;20040;-60
2022/04/16 00:11:08;;;;;;;7.53;3.38;;;18.30;64.20;;;;;;5081959;28;20024;-61
2022/04/16 00:13:34;;;;;;;6.75;3.03;;;18.20;64.00;;;;;;5048412;28;20428;-60
2022/04/16 00:15:59;;;;;;;7.90;3.28;;;18.20;64.10;;;;;;5084881;28;20476;-59
2022/04/16 00:18:25;;;;;;;5.70;2.63;;;18.20;64.10;;;;;;5084274;28;20142;-61
2022/04/16 00:20:51;;;;;;;10.18;3.28;;;18.20;64.00;;;;;;5050223;28;20067;-61
2022/04/16 00:23:20;;;;;;;6.13;2.92;;;18.10;64.00;;;;;;5050846;28;20155;-60
2022/04/16 00:25:46;;;;;;;9.82;2.42;;;18.10;64.10;;;;;;5081369;28;20024;-60
2022/04/16 00:28:12;;;;;;;8.48;2.67;;;18.10;64.10;;;;;;5081942;28;20479;-60
2022/04/16 00:30:39;;;;;;;6.82;2.72;;;18.00;64.10;;;;;;5083000;28;20048;-60
2022/04/16 00:33:05;;;;;;;6.63;2.58;;;18.00;64.00;;;;;;5084673;28;20147;-60
2022/04/16 00:35:31;;;;;;;8.30;2.63;;;18.00;64.30;;;;;;5064973;28;20542;-60
2022/04/16 00:37:57;;;;;;;9.35;2.97;;;17.90;64.10;;;;;;5084272;28;20131;-61
2022/04/16 00:40:22;;;;;;;12.25;3.10;;;18.00;64.10;;;;;;5063892;28;20044;-61
2022/04/16 00:42:50;;;;;;;9.45;3.25;;;17.90;64.00;;;;;;5066909;28;20031;-61
2022/04/16 00:45:15;;;;;;;12.02;3.20;;;17.90;64.00;;;;;;5083562;28;20042;-60
2022/04/16 00:47:41;;;;;;;6.95;3.47;;;17.80;64.00;;;;;;5067011;28;20016;-61
2022/04/16 00:50:10;;;;;;;4.22;2.75;;;17.80;64.00;;;;;;5082471;28;20032;-60
2022/04/16 00:52:36;;;;;;;5.75;2.85;;;17.70;64.10;;;;;;5065893;28;20148;-61
2022/04/16 00:55:03;;;;;;;4.70;3.08;;;17.70;64.20;;;;;;5046690;28;20063;-61
2022/04/16 00:57:29;;;;;;;5.13;2.90;;;17.70;64.20;;;;;;5065097;28;20016;-59
2022/04/16 00:59:54;;;;;;;6.00;2.75;;;17.60;64.20;;;;;;5081957;28;20063;-61
2022/04/16 01:02:21;;;;;;;5.28;2.70;;;17.60;64.10;;;;;;5082631;28;20027;-60
2022/04/16 01:04:47;;;;;;;5.15;2.75;;;17.60;64.30;;;;;;5081268;28;20020;-60
2022/04/16 01:07:12;;;;;;;5.40;2.30;;;17.50;64.30;;;;;;5082698;28;20024;-60
2022/04/16 01:09:38;;;;;;;4.32;2.75;;;17.60;64.20;;;;;;5083514;28;20048;-61
2022/04/16 01:12:04;;;;;;;6.00;2.55;;;17.50;64.40;;;;;;5063838;28;20036;-60
2022/04/16 01:14:29;;;;;;;5.63;2.30;;;17.50;64.30;;;;;;5063659;28;20028;-60
2022/04/16 01:16:57;;;;;;;4.35;2.30;;;17.50;64.30;;;;;;5064464;28;20489;-60
2022/04/16 01:19:25;;;;;;;7.05;2.28;;;17.40;64.30;;;;;;5083244;28;20307;-61
2022/04/16 01:21:51;;;;;;;6.22;2.28;;;17.40;64.40;;;;;;5064599;28;20024;-60
2022/04/16 01:24:16;;;;;;;3.28;1.88;;;17.30;64.50;;;;;;5064182;28;20027;-61
2022/04/16 01:26:42;;;;;;;2.88;1.98;;;17.30;64.50;;;;;;5046463;28;20032;-60
2022/04/16 01:29:11;;;;;;;2.42;1.90;;;17.30;64.50;;;;;;5065721;28;20085;-61
2022/04/16 01:31:36;;;;;;;3.30;1.75;;;17.30;64.50;;;;;;5065775;28;20047;-61
2022/04/16 01:34:02;;;;;;;3.97;2.00;;;17.30;64.80;;;;;;5083523;28;20043;-61
2022/04/16 01:36:31;;;;;;;6.03;1.83;;;17.20;64.60;;;;;;5064673;28;20715;-61
2022/04/16 01:38:57;;;;;;;7.20;1.90;;;17.20;64.80;;;;;;5082025;28;20087;-59
2022/04/16 01:41:29;;;;;;;8.65;1.95;;;17.20;64.70;;;;;;5061752;28;20451;-59
2022/04/16 01:43:54;;;;;;;4.65;1.90;;;17.20;64.80;;;;;;5064789;28;20028;-61
2022/04/16 01:46:20;;;;;;;6.10;2.50;;;17.00;64.80;;;;;;5061962;28;20036;-60
2022/04/16 01:48:46;;;;;;;8.27;2.50;;;17.10;65.00;;;;;;5081668;28;20035;-61
2022/04/16 01:51:11;;;;;;;4.93;2.60;;;17.00;65.00;;;;;;5065120;28;20024;-60
2022/04/16 01:53:37;;;;;;;5.30;2.65;;;17.00;65.10;;;;;;5048581;28;20029;-60
2022/04/16 01:56:02;;;;;;;3.85;2.70;;;17.00;65.10;;;;;;5084784;28;20433;-59
2022/04/16 01:58:28;;;;;;;6.82;2.60;;;17.10;65.10;;;;;;5083365;28;20024;-60
2022/04/16 02:00:54;;;;;;;3.10;2.22;;;17.10;64.90;;;;;;5047650;28;20421;-61
2022/04/16 02:03:20;;;;;;;4.68;2.08;;;17.00;65.20;;;;;;5047405;28;20040;-60
2022/04/16 02:05:46;;;;;;;22.75;2.38;;;17.00;65.20;;;;;;5082796;28;20036;-60
2022/04/16 02:08:12;;;;;;;6.00;2.83;;;17.00;65.60;;;;;;5080378;28;20089;-61
2022/04/16 02:10:37;;;;;;;3.80;2.55;;;16.90;65.60;;;;;;5082666;28;20103;-60
2022/04/16 02:13:03;;;;;;;6.60;2.33;;;16.90;65.60;;;;;;5083262;28;20336;-60
2022/04/16 02:15:28;;;;;;;4.07;2.28;;;16.90;65.70;;;;;;5083451;28;20489;-60
2022/04/16 02:17:56;;;;;;;3.17;1.92;;;16.90;65.70;;;;;;5083915;28;20444;-60
2022/04/16 02:20:23;;;;;;;4.43;2.00;;;16.90;65.60;;;;;;5066164;28;20028;-60
2022/04/16 02:22:48;;;;;;;4.28;1.95;;;16.90;65.90;;;;;;5062796;28;20016;-60
2022/04/16 02:25:14;;;;;;;4.53;2.30;;;16.80;66.00;;;;;;5081378;28;20039;-60
2022/04/16 02:27:40;;;;;;;6.15;2.30;;;16.80;66.00;;;;;;5063816;28;20086;-60
2022/04/16 02:30:11;;;;;;;6.45;2.25;;;16.80;66.10;;;;;;5046193;28;20028;-59
2022/04/16 02:32:46;;;;;;;4.07;2.65;;;16.80;66.30;;;;;;5066382;28;20441;-59
2022/04/16 02:35:15;;;;;;;3.95;2.70;;;16.70;66.40;;;;;;5044114;28;20083;-61
2022/04/16 02:37:41;;;;;;;7.95;2.95;;;16.70;66.50;;;;;;5044712;28;20276;-60
2022/04/16 02:40:07;;;;;;;4.13;2.50;;;16.60;66.60;;;;;;5044688;28;20040;-60
2022/04/16 02:42:36;;;;;;;3.45;2.88;;;16.70;66.80;;;;;;5028752;28;20447;-61
2022/04/16 02:47:46;;;;;;;5.50;2.55;;;16.60;66.90;;;;;;5059652;28;20117;-59
2022/04/16 02:50:12;;;;;;;5.55;2.55;;;16.50;67.00;;;;;;5059905;28;20120;-61
2022/04/16 02:52:39;;;;;;;3.63;2.55;;;16.50;67.00;;;;;;5061906;28;20182;-60
2022/04/16 02:55:04;;;;;;;3.05;2.33;;;16.50;67.10;;;;;;5058480;28;20032;-60
2022/04/16 02:57:33;;;;;;;3.83;2.25;;;16.50;67.30;;;;;;5060742;28;20032;-59
2022/04/16 02:59:59;;;;;;;4.95;2.13;;;16.50;67.30;;;;;;5042983;28;20116;-59
2022/04/16 03:02:24;;;;;;;3.75;2.28;;;16.40;67.60;;;;;;5044562;28;20142;-61
2022/04/16 03:04:50;;;;;;;3.15;2.33;;;16.40;67.70;;;;;;5063199;28;20049;-59
2022/04/16 03:07:16;;;;;;;3.13;2.25;;;16.30;67.80;;;;;;5044978;28;20119;-60
2022/04/16 03:09:42;;;;;;;3.85;2.25;;;16.30;67.90;;;;;;5041709;28;20029;-60
2022/04/16 03:12:07;;;;;;;5.82;2.30;;;16.30;68.10;;;;;;5041777;28;20102;-60
2022/04/16 03:17:32;;;;;;;4.25;2.10;;;16.20;68.20;;;;;;5056596;28;20048;-61
2022/04/16 03:20:04;;;;;;;2.80;1.95;;;16.20;68.40;;;;;;5060457;28;20977;-59
2022/04/16 03:22:31;;;;;;;2.72;2.00;;;16.10;68.50;;;;;;5060455;28;20020;-61
2022/04/16 03:24:56;;;;;;;3.28;1.90;;;16.10;68.80;;;;;;5060397;28;20032;-60
2022/04/16 03:27:22;;;;;;;3.10;2.13;;;16.00;68.90;;;;;;5058463;28;20067;-59
2022/04/16 03:29:47;;;;;;;3.08;1.90;;;16.00;69.10;;;;;;5060601;28;20072;-61
2022/04/16 03:32:13;;;;;;;3.97;2.25;;;15.90;69.20;;;;;;5071498;28;20788;-61
2022/04/16 03:34:39;;;;;;;2.40;2.10;;;15.90;69.40;;;;;;5080008;28;20468;-62
2022/04/16 03:37:05;;;;;;;5.38;2.38;;;15.90;69.60;;;;;;5080030;28;20059;-62
2022/04/16 03:39:30;;;;;;;2.97;2.30;;;15.80;69.70;;;;;;5062018;28;20468;-62
2022/04/16 03:41:56;;;;;;;2.83;1.98;;;15.80;69.80;;;;;;5061876;28;20489;-62
2022/04/16 03:44:21;;;;;;;3.40;1.95;;;15.80;70.00;;;;;;5078797;28;20032;-62
2022/04/16 03:46:47;;;;;;;4.40;1.88;;;15.70;70.00;;;;;;5080247;28;20089;-61
2022/04/16 03:49:13;;;;;;;2.40;2.20;;;15.70;70.10;;;;;;5081063;28;20170;-62
2022/04/16 03:51:38;;;;;;;3.88;2.25;;;15.70;70.20;;;;;;5078627;28;20032;-61
2022/04/16 04:02:16;;;;;;;3.05;1.90;;;15.60;70.30;;;;;;5080909;28;20078;-60
2022/04/16 04:04:43;;;;;;;3.08;2.03;;;15.60;70.40;;;;;;5060844;28;20661;-59
2022/04/16 04:07:10;;;;;;;2.92;2.20;;;15.60;70.50;;;;;;5080192;28;20353;-59
2022/04/16 04:09:37;;;;;;;2.40;1.92;;;15.60;70.60;;;;;;5061842;28;20039;-59
2022/04/16 04:12:10;;;;;;;2.65;1.92;;;15.60;70.80;;;;;;5062303;28;20023;-60
2022/04/16 04:14:39;;;;;;;3.10;2.15;;;15.60;70.80;;;;;;5078822;28;20762;-58
2022/04/16 04:17:08;;;;;;;3.60;1.77;;;15.50;70.90;;;;;;5081791;28;20554;-59
2022/04/16 04:19:35;;;;;;;3.10;2.17;;;15.50;71.00;;;;;;5077400;28;20032;-59
2022/04/16 04:22:02;;;;;;;4.25;2.17;;;15.50;71.20;;;;;;5061059;28;20037;-59
2022/04/16 04:24:27;;;;;;;3.80;2.30;;;15.50;71.10;;;;;;5078443;28;20036;-60
2022/04/16 04:27:00;;;;;;;2.97;1.90;;;15.50;71.30;;;;;;5057068;28;20627;-60
2022/04/16 04:29:26;;;;;;;4.60;2.20;;;15.50;71.40;;;;;;5073276;28;20082;-59
2022/04/16 04:31:52;;;;;;;5.35;2.20;;;15.40;71.40;;;;;;5043771;28;20137;-59
2022/04/16 04:34:17;;;;;;;2.35;2.10;;;15.40;71.50;;;;;;5047689;28;20499;-59
2022/04/16 04:36:43;;;;;;;3.38;2.03;;;15.30;71.70;;;;;;5080352;28;20031;-60
2022/04/16 04:39:08;;;;;;;4.40;2.58;;;15.30;71.70;;;;;;5081517;28;20396;-59
2022/04/16 04:41:34;;;;;;;3.13;2.40;;;15.30;71.80;;;;;;5078350;28;20175;-60
2022/04/16 04:43:59;;;;;;;4.05;2.30;;;15.30;71.80;;;;;;5060699;28;20028;-60
2022/04/16 04:46:25;;;;;;;4.07;2.13;;;15.30;72.00;;;;;;5080563;28;20484;-59
2022/04/16 04:48:50;;;;;;;3.88;2.20;;;15.30;72.10;;;;;;5083815;28;20063;-59
2022/04/16 04:51:16;;;;;;;3.53;2.20;;;15.20;72.20;;;;;;5081413;28;20035;-62
2022/04/16 04:53:41;;;;;;;5.18;2.92;;;15.20;72.20;;;;;;5064813;28;20116;-62
2022/04/16 04:56:07;;;;;;;3.40;2.22;;;15.20;72.40;;;;;;5065241;28;20062;-63
2022/04/16 04:58:32;;;;;;;3.15;2.53;;;15.20;72.50;;;;;;5064464;28;20028;-62
2022/04/16 05:00:58;;;;;;;3.30;2.60;;;15.20;72.60;;;;;;5085634;28;20149;-61
2022/04/16 05:03:23;;;;;;;5.40;2.72;;;15.10;72.60;;;;;;5085107;28;20024;-61
2022/04/16 05:05:49;;;;;;;18.70;3.35;;;15.10;72.60;;;;;;5082008;28;20025;-62
2022/04/16 05:08:15;;;;;;;37.30;4.90;;;15.10;72.80;;;;;;5048391;28;20036;-62
2022/04/16 05:10:40;;;;;;;21.23;3.72;;;15.10;73.00;;;;;;5063369;28;20043;-62
2022/04/16 05:13:06;;;;;;;52.35;7.38;;;15.00;73.10;;;;;;5083987;28;20038;-62
2022/04/16 05:15:32;;;;;;;74.25;7.88;;;14.90;73.20;;;;;;5046904;28;20030;-62
2022/04/16 05:17:57;;;;;;;79.13;9.00;;;14.90;73.30;;;;;;5082730;28;20534;-62
2022/04/16 05:20:23;;;;;;;130.38;14.55;;;14.90;73.50;;;;;;5083564;28;20028;-62
2022/04/16 05:22:48;;;;;;;165.70;15.85;;;14.90;73.60;;;;;;5067015;28;20480;-62
2022/04/16 05:25:14;;;;;;;133.40;13.77;;;14.80;73.70;;;;;;5047494;28;20622;-62
2022/04/16 05:27:39;;;;;;;115.47;11.75;;;14.80;73.70;;;;;;5082503;28;20043;-60
2022/04/16 05:30:22;;;;;;;123.45;13.25;;;14.80;73.70;;;;;;5080824;28;20094;-60
2022/04/16 05:32:49;;;;;;;108.05;12.57;;;14.80;73.70;;;;;;5067001;28;20066;-59
2022/04/16 05:35:15;;;;;;;93.57;11.32;;;14.80;73.80;;;;;;5082716;28;20031;-59
2022/04/16 05:37:40;;;;;;;97.18;11.73;;;14.80;73.70;;;;;;5064685;28;20024;-60
2022/04/16 05:40:06;;;;;;;94.93;9.98;;;14.80;73.80;;;;;;5062908;28;20039;-60
2022/04/16 05:42:32;;;;;;;74.50;8.90;;;14.80;73.70;;;;;;5085199;28;20445;-59
2022/04/16 05:45:01;;;;;;;65.53;8.55;;;14.80;73.70;;;;;;5082375;28;20024;-59
2022/04/16 05:47:27;;;;;;;72.05;9.18;;;14.80;73.70;;;;;;5049600;28;20031;-59
2022/04/16 05:49:53;;;;;;;50.35;7.65;;;14.80;73.70;;;;;;5047060;28;20028;-59
2022/04/16 05:52:18;;;;;;;54.85;7.43;;;14.80;73.80;;;;;;5063902;28;20229;-59
2022/04/16 05:54:44;;;;;;;47.13;8.20;;;14.80;73.70;;;;;;5080499;28;20140;-59
2022/04/16 05:57:09;;;;;;;38.53;6.40;;;14.80;73.70;;;;;;5046152;28;20038;-59
2022/04/16 05:59:35;;;;;;;53.58;7.22;;;14.70;73.80;;;;;;5080722;28;20538;-59
2022/04/16 06:02:01;;;;;;;33.67;5.63;;;14.70;73.80;;;;;;5066075;28;20639;-60
2022/04/16 06:04:26;;;;;;;32.78;6.47;;;14.70;73.80;;;;;;5062997;28;20028;-62
2022/04/16 06:06:52;;;;;;;32.97;5.78;;;14.70;73.80;;;;;;5081663;28;20039;-63
2022/04/16 06:09:17;;;;;;;35.45;6.65;;;14.70;73.90;;;;;;5065534;28;20032;-63
2022/04/16 06:11:43;;;;;;;15.40;4.65;;;14.70;74.10;;;;;;5082504;28;20024;-62
2022/04/16 06:14:09;;;;;;;19.38;5.50;;;14.60;74.40;;;;;;5081281;28;20486;-63
2022/04/16 06:16:34;;;;;;;13.32;5.05;;;14.60;74.50;;;;;;5062511;28;20644;-62
2022/04/16 06:19:00;;;;;;;11.85;5.28;;;14.60;74.60;;;;;;5080461;28;20044;-62
2022/04/16 06:21:25;;;;;;;6.35;4.45;;;14.50;74.90;;;;;;5060607;28;20052;-62
2022/04/16 06:23:51;;;;;;;11.63;4.97;;;14.40;75.70;;;;;;5081256;28;20036;-62
2022/04/16 06:26:17;;;;;;;10.13;4.15;;;14.40;75.40;;;;;;5061935;28;20047;-62
2022/04/16 06:28:42;;;;;;;6.93;4.50;;;14.30;75.50;;;;;;5082772;28;20032;-63
2022/04/16 06:31:08;;;;;;;5.55;4.60;;;14.30;75.70;;;;;;5066066;28;20035;-63
2022/04/16 06:33:33;;;;;;;8.82;4.35;;;14.30;75.90;;;;;;5065861;28;20031;-62
2022/04/16 06:35:59;;;;;;;7.35;4.53;;;14.20;76.00;;;;;;5083808;28;20040;-62
2022/04/16 06:38:25;;;;;;;8.23;4.43;;;14.20;76.10;;;;;;5082450;28;20042;-61
2022/04/16 06:40:50;;;;;;;5.50;4.93;;;14.10;76.30;;;;;;5062659;28;20036;-62
2022/04/16 06:43:16;;;;;;;9.25;4.28;;;14.10;76.40;;;;;;5063215;28;20040;-61
2022/04/16 06:45:41;;;;;;;5.05;4.53;;;14.10;76.50;;;;;;5063924;28;20490;-62
2022/04/16 06:48:07;;;;;;;5.35;4.30;;;14.10;76.50;;;;;;5082316;28;20079;-62
2022/04/16 06:50:32;;;;;;;5.85;4.15;;;14.00;76.50;;;;;;5065056;28;20024;-63
2022/04/16 06:52:58;;;;;;;4.95;4.10;;;14.00;76.50;;;;;;5083885;28;20073;-62
2022/04/16 06:55:23;;;;;;;7.38;4.45;;;14.00;76.50;;;;;;5063664;28;20084;-62
2022/04/16 06:57:49;;;;;;;8.15;4.07;;;14.10;76.50;;;;;;5064510;28;20094;-62
2022/04/16 07:00:15;;;;;;;6.53;3.90;;;14.10;76.40;;;;;;5081075;28;20099;-62
2022/04/16 07:02:41;;;;;;;11.05;4.22;;;14.10;76.40;;;;;;5082111;28;20188;-62
2022/04/16 07:05:07;;;;;;;5.55;4.07;;;14.10;76.40;;;;;;5080759;28;20036;-61
2022/04/16 07:07:32;;;;;;;8.70;4.47;;;14.10;76.30;;;;;;5062948;28;20031;-62
2022/04/16 07:09:58;;;;;;;5.20;4.47;;;14.00;76.30;;;;;;5077966;28;20063;-62
2022/04/16 07:12:24;;;;;;;10.23;4.00;;;14.10;76.30;;;;;;5082356;28;20113;-63
2022/04/16 07:14:50;;;;;;;7.45;4.30;;;14.10;76.30;;;;;;5081710;28;20115;-62
2022/04/16 07:17:15;;;;;;;7.75;4.68;;;14.10;76.20;;;;;;5065516;28;20035;-62
2022/04/16 07:19:41;;;;;;;6.20;4.03;;;14.10;76.90;;;;;;5082238;28;20028;-62
2022/04/16 07:22:07;;;;;;;5.03;4.00;;;14.10;76.20;;;;;;5064712;28;20024;-62
2022/04/16 07:24:32;;;;;;;5.43;3.95;;;14.10;76.10;;;;;;5061772;28;20020;-62
2022/04/16 07:26:58;;;;;;;7.65;4.30;;;14.20;76.10;;;;;;5062944;28;20214;-62
2022/04/16 07:29:24;;;;;;;4.63;3.75;;;14.20;75.90;;;;;;5062607;28;20066;-62
2022/04/16 07:31:50;;;;;;;5.65;3.83;;;14.20;75.80;;;;;;5062243;28;20083;-61
2022/04/16 07:34:15;;;;;;;4.97;4.05;;;14.20;75.60;;;;;;5063066;28;20324;-62
2022/04/16 07:36:44;;;;;;;5.32;4.22;;;14.20;75.60;;;;;;5064546;28;20056;-62
2022/04/16 07:39:10;;;;;;;5.43;3.72;;;14.30;75.50;;;;;;5063694;28;20098;-63
2022/04/16 07:41:36;;;;;;;4.50;3.80;;;14.30;75.40;;;;;;5064120;28;20097;-61
2022/04/16 07:44:03;;;;;;;4.75;3.88;;;14.30;75.30;;;;;;5082505;28;20028;-62
2022/04/16 07:46:35;;;;;;;4.30;3.90;;;14.60;75.30;;;;;;5063703;28;20027;-62
2022/04/16 07:49:01;;;;;;;4.40;3.90;;;14.40;75.20;;;;;;5078933;28;20024;-61
2022/04/16 07:51:27;;;;;;;4.40;4.00;;;14.40;75.10;;;;;;5080059;28;20054;-62
2022/04/16 07:53:53;;;;;;;4.80;3.78;;;14.30;74.90;;;;;;5062311;28;20523;-62
2022/04/16 07:56:18;;;;;;;4.63;3.40;;;14.40;75.00;;;;;;5063341;28;20054;-62
2022/04/16 07:58:44;;;;;;;6.28;3.72;;;14.40;74.90;;;;;;5062489;28;20032;-62
2022/04/16 08:01:09;;;;;;;5.10;3.38;;;14.50;74.90;;;;;;5083662;28;20106;-63
2022/04/16 08:03:35;;;;;;;5.57;3.85;;;14.40;74.70;;;;;;5030045;28;20105;-63
2022/04/16 08:06:00;;;;;;;4.45;3.72;;;14.40;74.60;;;;;;5061832;28;20070;-62
2022/04/16 08:08:26;;;;;;;4.28;3.60;;;14.40;74.60;;;;;;5080851;28;20043;-62
2022/04/16 08:10:53;;;;;;;4.57;4.07;;;14.50;74.50;;;;;;5079926;28;20032;-62
2022/04/16 08:13:21;;;;;;;5.45;3.78;;;14.50;74.50;;;;;;5079801;28;20032;-63
2022/04/16 08:15:47;;;;;;;6.75;3.72;;;14.40;74.30;;;;;;5081266;28;20115;-62
2022/04/16 08:18:13;;;;;;;12.23;4.68;;;14.50;74.40;;;;;;5064260;28;20032;-62
2022/04/16 08:20:38;;;;;;;7.07;3.90;;;14.40;74.20;;;;;;5083896;28;20589;-62
2022/04/16 08:23:06;;;;;;;7.47;3.85;;;14.50;74.30;;;;;;5066202;28;20031;-61
2022/04/16 08:28:01;;;;;;;10.23;3.95;;;14.60;74.20;;;;;;5068143;28;20028;-62
2022/04/16 08:30:27;;;;;;;22.10;4.68;;;14.60;74.10;;;;;;5050254;28;20055;-62
2022/04/16 08:32:52;;;;;;;13.43;4.35;;;14.70;74.00;;;;;;5066524;28;20052;-63
2022/04/16 08:35:18;;;;;;;12.45;4.20;;;14.70;73.90;;;;;;5083403;28;20024;-61
2022/04/16 08:37:44;;;;;;;16.75;4.68;;;14.60;73.60;;;;;;5065647;28;20978;-60
2022/04/16 08:40:10;;;;;;;15.80;4.50;;;14.80;73.80;;;;;;5063490;28;20109;-61
2022/04/16 08:42:37;;;;;;;9.77;5.15;;;14.80;73.60;;;;;;5065839;28;20032;-62
2022/04/16 08:45:03;;;;;;;18.35;4.85;;;14.80;73.70;;;;;;5049156;28;20036;-62
2022/04/16 08:47:29;;;;;;;15.05;4.55;;;14.90;73.70;;;;;;5066885;28;20020;-62
2022/04/16 08:49:54;;;;;;;15.77;4.97;;;14.90;73.70;;;;;;5066972;28;20028;-61
2022/04/16 08:52:22;;;;;;;29.95;5.95;;;15.00;73.60;;;;;;5084903;28;20475;-62
2022/04/16 08:54:47;;;;;;;26.35;5.65;;;15.00;74.20;;;;;;5066246;28;20498;-61
2022/04/16 08:57:13;;;;;;;38.60;7.47;;;15.00;73.80;;;;;;5065345;28;20149;-61
2022/04/16 08:59:38;;;;;;;42.97;7.63;;;15.00;73.60;;;;;;5064344;28;20816;-61
2022/04/16 09:02:04;;;;;;;45.25;7.45;;;15.10;73.40;;;;;;5082753;28;20456;-62
2022/04/16 09:04:31;;;;;;;33.05;6.95;;;15.10;73.30;;;;;;5082776;28;20118;-62
2022/04/16 09:06:57;;;;;;;62.72;9.25;;;15.20;73.30;;;;;;5078851;28;20103;-61
2022/04/16 09:09:23;;;;;;;45.53;7.80;;;15.20;73.50;;;;;;5060184;28;20123;-61
2022/04/16 09:11:49;;;;;;;72.03;10.57;;;15.30;73.50;;;;;;5079814;28;20617;-61
2022/04/16 09:14:14;;;;;;;70.05;11.00;;;15.30;73.50;;;;;;5083704;28;20475;-63
2022/04/16 09:16:40;;;;;;;40.55;8.70;;;15.30;73.20;;;;;;5050237;28;20055;-61
2022/04/16 09:19:10;;;;;;;34.42;7.45;;;15.40;73.30;;;;;;5065898;28;20534;-61
2022/04/16 09:21:35;;;;;;;66.18;9.05;;;15.40;73.00;;;;;;5065261;28;20116;-62
2022/04/16 09:24:02;;;;;;;39.50;7.97;;;15.40;72.90;;;;;;5082705;28;20102;-62
2022/04/16 09:26:30;;;;;;;41.22;7.53;;;15.60;72.80;;;;;;5047698;28;20485;-62
2022/04/16 09:28:55;;;;;;;43.55;8.18;;;15.50;72.80;;;;;;5081917;28;20028;-61
2022/04/16 09:31:28;;;;;;;32.05;7.53;;;15.60;72.60;;;;;;5080326;28;20581;-62
2022/04/16 09:33:54;;;;;;;73.35;9.05;;;15.60;72.60;;;;;;5063203;28;20025;-61
2022/04/16 09:36:26;;;;;;;82.13;10.40;;;15.70;72.50;;;;;;5063984;28;20028;-61
2022/04/16 09:39:05;;;;;;;43.33;8.80;;;15.70;72.90;;;;;;5066189;28;20499;-61
2022/04/16 09:41:31;;;;;;;53.15;9.85;;;15.70;71.80;;;;;;5084190;28;20104;-62
2022/04/16 09:43:57;;;;;;;52.30;7.78;;;15.70;71.60;;;;;;5064047;28;20024;-63
2022/04/16 09:46:22;;;;;;;26.67;6.45;;;15.80;71.30;;;;;;5060315;28;20067;-62
2022/04/16 09:48:48;;;;;;;41.88;7.10;;;15.80;71.20;;;;;;5062752;28;20059;-63
2022/04/16 09:51:13;;;;;;;70.97;8.75;;;15.90;71.00;;;;;;5063923;28;20059;-61
2022/04/16 09:53:39;;;;;;;89.88;10.88;;;15.90;70.70;;;;;;5048170;28;20546;-64
2022/04/16 09:56:06;;;;;;;57.60;9.23;;;15.90;70.50;;;;;;5050166;28;20042;-62
2022/04/16 09:58:38;;;;;;;159.63;21.77;;;15.90;70.30;;;;;;5064451;28;20028;-61
2022/04/16 10:01:03;;;;;;;51.72;8.75;;;15.90;70.20;;;;;;5048986;28;20058;-62
2022/04/16 10:03:29;;;;;;;63.40;8.65;;;16.00;70.00;;;;;;5065216;28;20024;-62
2022/04/16 10:05:58;;;;;;;51.13;7.05;;;16.00;69.80;;;;;;5063470;28;20032;-62
2022/04/16 10:08:25;;;;;;;45.92;7.35;;;16.10;69.60;;;;;;5063944;28;20048;-61
2022/04/16 10:11:03;;;;;;;66.60;8.02;;;16.10;69.40;;;;;;5062830;28;20040;-61
2022/04/16 10:13:31;;;;;;;52.15;7.65;;;16.10;69.20;;;;;;5065542;28;20078;-61
2022/04/16 10:16:02;;;;;;;29.77;7.20;;;16.10;69.10;;;;;;5062587;28;20024;-62
2022/04/16 10:18:27;;;;;;;58.97;8.43;;;16.10;69.00;;;;;;5065868;28;20020;-61
2022/04/16 10:20:54;;;;;;;52.10;7.22;;;16.10;69.00;;;;;;5064578;28;20482;-61
2022/04/16 10:23:30;;;;;;;40.20;7.65;;;16.10;68.80;;;;;;5065212;28;20020;-61
2022/04/16 10:26:06;;;;;;;53.58;9.57;;;16.20;68.70;;;;;;5066354;28;20170;-61
2022/04/16 10:28:43;;;;;;;110.88;13.25;;;16.20;68.70;;;;;;5080677;28;20993;-62
2022/04/16 10:31:25;;;;;;;76.18;8.55;;;16.20;68.70;;;;;;5049436;28;20495;-62
2022/04/16 10:34:09;;;;;;;63.90;8.25;;;16.20;68.50;;;;;;5063546;28;20406;-61
2022/04/16 10:36:44;;;;;;;57.95;8.52;;;16.20;68.40;;;;;;5081827;28;20111;-61
2022/04/16 10:39:23;;;;;;;51.88;8.60;;;16.20;68.30;;;;;;5059669;28;20043;-61
2022/04/16 10:41:57;;;;;;;57.58;8.27;;;16.30;68.50;;;;;;5076792;28;20023;-62
2022/04/16 10:44:23;;;;;;;59.35;8.10;;;16.30;68.50;;;;;;5083214;28;20028;-62
2022/04/16 10:46:50;;;;;;;56.28;7.60;;;16.40;68.30;;;;;;5079675;28;20024;-61
2022/04/16 10:49:16;;;;;;;48.47;7.85;;;16.30;68.10;;;;;;5066135;28;20038;-61
2022/04/16 10:51:42;;;;;;;67.15;7.72;;;16.40;68.10;;;;;;5063516;28;20134;-61
2022/04/16 10:54:14;;;;;;;68.45;9.15;;;16.40;68.00;;;;;;5080676;28;20099;-61
2022/04/16 10:56:44;;;;;;;48.83;7.05;;;16.40;67.60;;;;;;5046098;28;20601;-62
2022/04/16 10:59:11;;;;;;;39.13;6.88;;;16.40;67.70;;;;;;5081060;28;20279;-61
2022/04/16 11:01:36;;;;;;;35.72;6.28;;;16.50;67.50;;;;;;5083128;28;20016;-61
2022/04/16 11:04:14;;;;;;;56.80;6.82;;;16.50;67.40;;;;;;5046345;28;20274;-61
2022/04/16 11:06:48;;;;;;;36.83;7.32;;;16.50;67.30;;;;;;5081926;28;20020;-62
2022/04/16 11:09:15;;;;;;;47.40;7.10;;;16.60;67.00;;;;;;5081482;28;20024;-61
2022/04/16 11:11:41;;;;;;;33.25;5.90;;;16.60;66.80;;;;;;5064388;28;20487;-61
2022/04/16 11:14:10;;;;;;;43.88;6.15;;;16.60;66.70;;;;;;5081914;28;20050;-62
2022/04/16 11:16:43;;;;;;;37.70;5.70;;;16.60;66.50;;;;;;5063109;28;20024;-62
2022/04/16 11:19:13;;;;;;;28.98;5.53;;;16.70;66.60;;;;;;5063711;28;20475;-61
2022/04/16 11:21:39;;;;;;;26.52;4.88;;;16.70;66.30;;;;;;5061713;28;20036;-62
2022/04/16 11:24:05;;;;;;;33.88;4.97;;;16.70;65.90;;;;;;5063227;28;20042;-61
2022/04/16 11:34:49;;;;;;;25.80;6.57;;;16.90;65.30;;;;;;5065805;28;20094;-62
2022/04/16 11:37:15;;;;;;;38.53;6.07;;;17.00;65.00;;;;;;5081119;28;20440;-62
2022/04/16 11:39:40;;;;;;;26.27;5.13;;;17.00;65.00;;;;;;5080415;28;20044;-61
2022/04/16 11:42:10;;;;;;;33.50;5.60;;;17.00;64.90;;;;;;5080985;28;20078;-61
2022/04/16 11:44:40;;;;;;;28.38;5.03;;;17.10;64.80;;;;;;5081309;28;20336;-61
2022/04/16 11:47:19;;;;;;;34.50;5.28;;;17.10;64.70;;;;;;5062447;28;20077;-65
2022/04/16 11:49:46;;;;;;;25.55;4.70;;;17.20;64.40;;;;;;5061493;28;20132;-62
2022/04/16 11:52:12;;;;;;;35.55;5.45;;;17.20;64.20;;;;;;5063632;28;20144;-62
2022/04/16 11:54:37;;;;;;;29.83;5.25;;;17.30;64.00;;;;;;5064177;28;20198;-62
2022/04/16 11:57:03;;;;;;;40.47;5.38;;;17.30;64.00;;;;;;5082545;28;20043;-62
2022/04/16 11:59:29;;;;;;;37.75;5.22;;;17.40;63.80;;;;;;5046595;28;20516;-61
2022/04/16 12:02:07;;;;;;;27.70;5.38;;;17.40;63.90;;;;;;5062708;28;20387;-62
2022/04/16 12:04:34;;;;;;;50.40;6.47;;;17.40;63.90;;;;;;5047326;28;20032;-62
2022/04/16 12:06:59;;;;;;;47.35;5.50;;;17.40;63.90;;;;;;5080690;28;20461;-61
2022/04/16 12:09:25;;;;;;;50.05;6.50;;;17.50;63.90;;;;;;5062081;28;20035;-62
2022/04/16 12:11:54;;;;;;;35.72;5.78;;;17.50;63.70;;;;;;5080501;28;20036;-62
2022/04/16 12:14:20;;;;;;;36.33;5.40;;;17.50;63.50;;;;;;5062661;28;20032;-63
2022/04/16 12:16:55;;;;;;;26.65;5.50;;;17.60;63.10;;;;;;5080260;28;20028;-61
2022/04/16 12:19:21;;;;;;;45.78;6.05;;;17.70;62.70;;;;;;5061036;28;20064;-62
2022/04/16 12:21:46;;;;;;;36.53;5.20;;;17.80;62.80;;;;;;5047105;28;20064;-62
2022/04/16 12:24:12;;;;;;;32.08;5.13;;;17.80;62.60;;;;;;5062827;28;20048;-62
2022/04/16 12:26:46;;;;;;;31.58;5.20;;;17.80;62.50;;;;;;5062407;28;20050;-62
2022/04/16 12:29:12;;;;;;;43.07;5.43;;;17.90;62.70;;;;;;5047566;28;20044;-62
2022/04/16 12:31:37;;;;;;;37.20;4.72;;;17.90;62.60;;;;;;5065213;28;20040;-62
2022/04/16 12:34:03;;;;;;;31.70;5.20;;;17.90;62.50;;;;;;5082116;28;20036;-62
2022/04/16 12:36:28;;;;;;;38.80;5.35;;;17.90;62.30;;;;;;5082303;28;20070;-62
2022/04/16 12:38:54;;;;;;;48.55;5.22;;;17.90;62.10;;;;;;5081365;28;20028;-61
2022/04/16 12:41:23;;;;;;;41.45;4.95;;;17.90;61.90;;;;;;5079836;28;20024;-62
2022/04/16 12:43:48;;;;;;;35.38;5.38;;;17.90;61.80;;;;;;5063012;28;20039;-62
2022/04/16 12:46:14;;;;;;;27.02;4.78;;;17.90;61.60;;;;;;5081710;28;20036;-63
2022/04/16 12:48:39;;;;;;;30.83;4.30;;;18.00;61.50;;;;;;5061690;28;20073;-62
2022/04/16 12:51:05;;;;;;;34.17;6.00;;;18.00;61.60;;;;;;5080482;28;20079;-62
2022/04/16 12:53:30;;;;;;;41.63;4.38;;;18.00;61.40;;;;;;5080550;28;20189;-62
2022/04/16 12:55:56;;;;;;;38.58;5.82;;;17.90;61.00;;;;;;5063087;28;20097;-62
2022/04/16 12:58:21;;;;;;;33.40;5.55;;;17.90;61.60;;;;;;5079210;28;20028;-61
2022/04/16 13:00:47;;;;;;;57.92;6.72;;;18.00;60.60;;;;;;5080848;28;20039;-62
2022/04/16 13:03:13;;;;;;;54.90;7.75;;;18.00;60.30;;;;;;5064421;28;20054;-63